Mattice, Canada
Current Conditions -  °F | °C
As of 7:00 AM on Thursday 23 Oct 2014 (Local Time) from CYYU Reporting Station
Clear Clear  
Wind Chill: 21°   Ceiling: Unl
Heat Index: 27°   Visibility: 15mi
Dew Point: 23°   Wind: 5mph
Humidity: 86%   Direction: 160°SSE
Pressure: 30.17"   Gusts: NA
Location:  49.61°N, 83.26°W
Report Text: CYYU 231100Z 16004KT 15SM SKC M03/M05 A3017 RMK FROIN SLP229
Loading
Personal Weather Stations






























Interactive Weather Map
Tropical Storm Tracking
New forecast layout! Learn more

10-Day Weather Forecast

Advertisements
Track Severe Weather on mobile